Mars — XPC8385 — position and weather

sailwx.info

Track history (hours):
 
Tides and Currents Weather Stations Pressure Air Temp Water Temp Dewpoint Dewpoint Depression Visibility Wind Speed Wind Dir Waves Ship Positions

Mars

Last reported at 2015-Mar-27 23:29 UTC. Time now 2015-Mar-28 00:33 UTC.
Position N 55°17' E 014°48'.

Length 14 m; draft 1.7 m.

Type: Pilot. MMSI: 219001058.

Date/timePositionNaut miles runAvg speedWind from/ knotsBaromVisibWave heightAir tempDewpointWater temp
2015-Mar-27 23:29N 55°17' E 014°48'0 0.0
2015-Mar-27 22:23N 55°17' E 014°48'0 0.0
2015-Mar-27 21:29N 55°17' E 014°48'0 0.0
2015-Mar-27 20:23N 55°17' E 014°48'0 0.0
2015-Mar-27 19:29N 55°17' E 014°48'0 0.0
2015-Mar-27 17:11N 55°17' E 014°48'0 0.0
2015-Mar-27 16:11N 55°17' E 014°48'0 0.0
2015-Mar-27 15:11N 55°17' E 014°48'0 0.0
2015-Mar-27 14:29N 55°17' E 014°48'0 0.0
2015-Mar-27 13:29N 55°17' E 014°48'0 0.0
2015-Mar-27 12:29N 55°17' E 014°48'0 0.0
2015-Mar-27 11:29N 55°17' E 014°48'0 0.0
2015-Mar-27 10:29N 55°17' E 014°48'0 0.4
2015-Mar-27 09:32N 55°17' E 014°49'0 0.4
2015-Mar-27 08:30N 55°17' E 014°48'0 0.0
2015-Mar-27 07:30N 55°17' E 014°48'0 0.0
2015-Mar-27 06:30N 55°17' E 014°48'0 0.0
2015-Mar-27 05:30N 55°17' E 014°48'0 0.0
2015-Mar-27 04:30N 55°17' E 014°48'0 0.0
2015-Mar-27 03:29N 55°17' E 014°48'0 0.0
2015-Mar-27 02:23N 55°17' E 014°48'0 0.0
2015-Mar-27 01:29N 55°17' E 014°48'0 0.0
2015-Mar-27 00:30N 55°17' E 014°48'0 0.0
2015-Mar-26 23:29N 55°17' E 014°48'0 0.0
2015-Mar-26 22:29N 55°17' E 014°48'0 0.0
2015-Mar-26 21:29N 55°17' E 014°48'0 0.0
2015-Mar-26 20:29N 55°17' E 014°48'0 0.0
2015-Mar-26 19:29N 55°17' E 014°48'0 0.0
2015-Mar-26 18:29N 55°17' E 014°48'0 0.0
2015-Mar-26 17:29N 55°17' E 014°48'0 0.0
2015-Mar-26 16:29N 55°17' E 014°48'2 1.6
2015-Mar-26 15:32N 55°17' E 014°45'0 0.0
2015-Mar-26 14:26N 55°17' E 014°45'0 0.0
2015-Mar-26 13:26N 55°17' E 014°45'0 0.0
2015-Mar-26 12:32N 55°17' E 014°45'3 3.1
2015-Mar-26 11:33N 55°17' E 014°40'3 2.6
2015-Mar-26 10:23N 55°17' E 014°45'0 0.0
2015-Mar-26 09:23N 55°17' E 014°45'0 0.0
2015-Mar-26 08:29N 55°17' E 014°45'0 0.0
2015-Mar-26 07:29N 55°17' E 014°45'0 0.0
2015-Mar-26 06:05N 55°17' E 014°45'0 0.0
2015-Mar-26 05:29N 55°17' E 014°45'0 0.0
2015-Mar-26 04:29N 55°17' E 014°45'0 0.0
2015-Mar-26 03:29N 55°17' E 014°45'0 0.0
2015-Mar-26 02:29N 55°17' E 014°45'0 0.0
2015-Mar-26 01:29N 55°17' E 014°45'0 0.0
2015-Mar-26 00:29N 55°17' E 014°45'0 0.0
2015-Mar-25 23:23N 55°17' E 014°45'0 0.0
2015-Mar-25 22:29N 55°17' E 014°45'0 0.0
2015-Mar-25 21:11N 55°17' E 014°45'0 0.0
2015-Mar-25 20:29N 55°17' E 014°45'0 0.0
2015-Mar-25 19:29N 55°17' E 014°45'0 0.0
2015-Mar-25 18:29N 55°17' E 014°45'0 0.0
2015-Mar-25 17:29N 55°17' E 014°45'0 0.0
2015-Mar-25 16:29N 55°17' E 014°45'0 0.0
2015-Mar-25 15:28N 55°17' E 014°45'0 0.0
2015-Mar-25 14:28N 55°17' E 014°45'0 0.0
2015-Mar-25 13:28N 55°17' E 014°45'0 0.0
2015-Mar-25 12:28N 55°17' E 014°45'0 0.0
2015-Mar-25 11:32N 55°17' E 014°45'1 0.9
2015-Mar-25 10:33N 55°17' E 014°45'2 1.6
2015-Mar-25 09:19N 55°17' E 014°48'0 0.0
2015-Mar-25 08:31N 55°17' E 014°48'0 0.0
2015-Mar-25 07:31N 55°17' E 014°48'0 0.0
2015-Mar-25 06:31N 55°17' E 014°48'0 0.0
2015-Mar-25 05:25N 55°17' E 014°48'0 0.0
2015-Mar-25 04:31N 55°17' E 014°48'0 0.0
2015-Mar-25 03:31N 55°17' E 014°48'3 2.7
2015-Mar-25 02:33N 55°18' E 014°52'3 2.4
2015-Mar-25 01:28N 55°17' E 014°48'0 0.0
2015-Mar-25 00:33N 55°17' E 014°48'0 0.0
2015-Mar-24 22:27N 55°17' E 014°48'0 0.0
2015-Mar-24 21:33N 55°17' E 014°48'0 0.0
2015-Mar-24 20:33N 55°17' E 014°48'0 0.0
2015-Mar-24 19:21N 55°17' E 014°48'0 0.0
2015-Mar-24 18:30N 55°17' E 014°48'0 0.0
2015-Mar-24 17:33N 55°17' E 014°48'0 0.0
2015-Mar-24 16:21N 55°17' E 014°48'0 0.0
2015-Mar-24 15:33N 55°17' E 014°48'0 0.0
2015-Mar-24 14:33N 55°17' E 014°48'0 0.0
2015-Mar-24 12:33N 55°17' E 014°48'0 0.0
2015-Mar-24 11:27N 55°17' E 014°48'0 0.0
2015-Mar-24 10:27N 55°17' E 014°48'0 0.0
2015-Mar-24 09:33N 55°17' E 014°48'0 0.0
2015-Mar-24 08:27N 55°17' E 014°48'0 0.0
2015-Mar-24 07:26N 55°17' E 014°48'0 0.0
2015-Mar-24 06:24N 55°17' E 014°48'0 0.0
2015-Mar-24 05:30N 55°17' E 014°48'0 0.0
2015-Mar-24 04:12N 55°17' E 014°48'0 0.0
2015-Mar-24 03:30N 55°17' E 014°48'0 0.0
2015-Mar-24 02:24N 55°17' E 014°48'0 0.0
2015-Mar-24 01:30N 55°17' E 014°48'0 0.0
2015-Mar-24 00:30N 55°17' E 014°48'0 0.0
2015-Mar-23 23:18N 55°17' E 014°48'0 0.0
2015-Mar-23 22:30N 55°17' E 014°48'0 0.0
2015-Mar-23 21:06N 55°17' E 014°48'0 0.0
2015-Mar-23 20:24N 55°17' E 014°48'0 0.0
2015-Mar-23 19:24N 55°17' E 014°48'2 2.9
2015-Mar-23 18:33N 55°18' E 014°51'2 2.2
2015-Mar-23 17:26N 55°17' E 014°48'0 0.0
2015-Mar-23 16:26N 55°17' E 014°48'0 0.0
2015-Mar-23 15:25N 55°17' E 014°48'0 0.0
2015-Mar-23 14:13N 55°17' E 014°48'0 0.0
2015-Mar-23 12:31N 55°17' E 014°48'0 0.0
2015-Mar-23 11:31N 55°17' E 014°48'0 0.0
2015-Mar-23 10:19N 55°17' E 014°48'0 0.0
2015-Mar-23 09:31N 55°17' E 014°48'0 0.0
2015-Mar-23 08:25N 55°17' E 014°48'0 0.0
2015-Mar-23 07:25N 55°17' E 014°48'0 0.0
2015-Mar-23 06:19N 55°17' E 014°48'0 0.0
2015-Mar-23 05:13N 55°17' E 014°48'0 0.0
2015-Mar-23 04:25N 55°17' E 014°48'0 0.0
2015-Mar-23 03:31N 55°17' E 014°48'0 0.0
2015-Mar-23 02:25N 55°17' E 014°48'0 0.0
2015-Mar-23 01:31N 55°17' E 014°48'0 0.0
2015-Mar-23 00:19N 55°17' E 014°48'0 0.0
2015-Mar-22 22:31N 55°17' E 014°48'0 0.0
2015-Mar-22 21:25N 55°17' E 014°48'0 0.0
2015-Mar-22 20:31N 55°17' E 014°48'0 0.0
2015-Mar-22 19:31N 55°17' E 014°48'0 0.0
2015-Mar-22 18:31N 55°17' E 014°48'0 0.0
2015-Mar-22 17:31N 55°17' E 014°48'0 0.0
2015-Mar-22 16:07N 55°17' E 014°48'0 0.0
2015-Mar-22 15:13N 55°17' E 014°48'0 0.0
2015-Mar-22 14:25N 55°17' E 014°48'0 0.0
2015-Mar-22 13:31N 55°17' E 014°48'0 0.0
2015-Mar-22 11:31N 55°17' E 014°48'0 0.0
2015-Mar-22 10:31N 55°17' E 014°48'1 0.6
2015-Mar-22 09:33N 55°17' E 014°48'1 1.5
2015-Mar-22 08:33N 55°17' E 014°45'0 0.0
2015-Mar-22 07:33N 55°17' E 014°45'0 0.0
2015-Mar-22 06:33N 55°17' E 014°45'0 0.0
2015-Mar-22 05:33N 55°17' E 014°45'0 0.0
2015-Mar-22 04:33N 55°17' E 014°45'0 0.0
2015-Mar-22 03:32N 55°17' E 014°45'0 0.0
2015-Mar-22 02:26N 55°17' E 014°45'1 0.1
2015-Mar-21 18:13N 55°16' E 014°44'1 0.3
2015-Mar-21 15:09N 55°16' E 014°43'2 0.9
2015-Mar-21 13:31N 55°16' E 014°41'1 0.3
2015-Mar-21 09:30N 55°17' E 014°43'1 0.2
2015-Mar-21 02:23N 55°17' E 014°45'2 0.1
2015-Mar-20 13:25N 55°17' E 014°48'0 0.0
2015-Mar-20 12:19N 55°17' E 014°48'0 0.0
2015-Mar-20 11:31N 55°17' E 014°48'0 0.0
2015-Mar-20 10:13N 55°17' E 014°48'0 0.0
2015-Mar-20 09:31N 55°17' E 014°48'0 0.0
2015-Mar-20 08:27N 55°17' E 014°48'0 0.0
2015-Mar-20 07:33N 55°17' E 014°48'0 0.0
2015-Mar-20 06:33N 55°17' E 014°48'3 3.4
2015-Mar-20 05:33N 55°20' E 014°48'3 3.1
2015-Mar-20 04:26N 55°17' E 014°48'0 0.0
2015-Mar-20 03:32N 55°17' E 014°48'0 0.0
2015-Mar-20 02:26N 55°17' E 014°48'0 0.0
2015-Mar-20 01:26N 55°17' E 014°48'0 0.0
2015-Mar-20 00:20N 55°17' E 014°48'0 0.1
2015-Mar-19 23:34N 55°17' E 014°48'0 0.1
2015-Mar-19 22:33N 55°17' E 014°48'1 0.5
2015-Mar-19 20:33N 55°18' E 014°48'1 1.0
2015-Mar-19 19:31N 55°17' E 014°48'0 0.0
2015-Mar-19 18:25N 55°17' E 014°48'0 0.0
2015-Mar-19 17:31N 55°17' E 014°48'0 0.0
2015-Mar-19 16:19N 55°17' E 014°48'0 0.0
2015-Mar-19 15:31N 55°17' E 014°48'0 0.0
2015-Mar-19 14:31N 55°17' E 014°48'0 0.0
2015-Mar-19 13:30N 55°17' E 014°48'0 0.0
2015-Mar-19 12:24N 55°17' E 014°48'0 0.0
2015-Mar-19 11:30N 55°17' E 014°48'0 0.0
2015-Mar-19 10:30N 55°17' E 014°48'0 0.0
2015-Mar-19 09:30N 55°17' E 014°48'0 0.0
2015-Mar-19 08:18N 55°17' E 014°48'0 0.0
2015-Mar-19 07:24N 55°17' E 014°48'0 0.0
2015-Mar-19 06:30N 55°17' E 014°48'0 0.0
2015-Mar-19 05:30N 55°17' E 014°48'0 0.0
2015-Mar-19 04:30N 55°17' E 014°48'0 0.0
2015-Mar-19 03:30N 55°17' E 014°48'0 0.0
2015-Mar-19 02:18N 55°17' E 014°48'0 0.0
2015-Mar-19 01:24N 55°17' E 014°48'0 0.0
2015-Mar-19 00:30N 55°17' E 014°48'0 0.0
2015-Mar-18 23:18N 55°17' E 014°48'0 0.0
2015-Mar-18 22:24N 55°17' E 014°48'0 0.0
2015-Mar-18 21:30N 55°17' E 014°48'0 0.0
2015-Mar-18 20:30N 55°17' E 014°48'0 0.0
2015-Mar-18 19:30N 55°17' E 014°48'0 0.0
2015-Mar-18 18:18N 55°17' E 014°48'0 0.0
2015-Mar-18 17:30N 55°17' E 014°48'0 0.0
2015-Mar-18 16:30N 55°17' E 014°48'0 0.0
2015-Mar-18 15:30N 55°17' E 014°48'0 0.0
2015-Mar-18 14:30N 55°17' E 014°48'0 0.0
2015-Mar-18 13:30N 55°17' E 014°48'0 0.0
2015-Mar-18 12:24N 55°17' E 014°48'0 0.0
2015-Mar-18 11:22N 55°17' E 014°48'0 0.0
2015-Mar-18 10:23N 55°17' E 014°48'0 0.0
2015-Mar-18 09:29N 55°17' E 014°48'0 0.0
2015-Mar-18 08:29N 55°17' E 014°48'0 0.0
2015-Mar-18 07:17N 55°17' E 014°48'0 0.0
2015-Mar-18 06:29N 55°17' E 014°48'0 0.0
2015-Mar-18 05:29N 55°17' E 014°48'0 0.0
2015-Mar-18 04:23N 55°17' E 014°48'0 0.0
2015-Mar-18 03:17N 55°17' E 014°48'0 0.0
2015-Mar-18 02:33N 55°17' E 014°48'0 0.0
2015-Mar-18 01:22N 55°17' E 014°48'0 0.0
2015-Mar-18 00:28N 55°17' E 014°48'  
Track history (hours):
 
Tides and Currents Weather Stations Pressure Air Temp Water Temp Dewpoint Dewpoint Depression Visibility Wind Speed Wind Dir Waves Ship Positions

Mars

Last reported at 2015-Mar-27 23:29 UTC. Time now 2015-Mar-28 00:33 UTC.
Position N 55°17' E 014°48'.

Length 14 m; draft 1.7 m.

Type: Pilot. MMSI: 219001058.

Date/timePositionNaut miles runAvg speedWind from/ knotsBaromVisibWave heightAir tempDewpointWater temp
2015-Mar-27 23:29N 55°17' E 014°48'0 0.0
2015-Mar-27 22:23N 55°17' E 014°48'0 0.0
2015-Mar-27 21:29N 55°17' E 014°48'0 0.0
2015-Mar-27 20:23N 55°17' E 014°48'0 0.0
2015-Mar-27 19:29N 55°17' E 014°48'0 0.0
2015-Mar-27 17:11N 55°17' E 014°48'0 0.0
2015-Mar-27 16:11N 55°17' E 014°48'0 0.0
2015-Mar-27 15:11N 55°17' E 014°48'0 0.0
2015-Mar-27 14:29N 55°17' E 014°48'0 0.0
2015-Mar-27 13:29N 55°17' E 014°48'0 0.0
2015-Mar-27 12:29N 55°17' E 014°48'0 0.0
2015-Mar-27 11:29N 55°17' E 014°48'0 0.0
2015-Mar-27 10:29N 55°17' E 014°48'0 0.4
2015-Mar-27 09:32N 55°17' E 014°49'0 0.4
2015-Mar-27 08:30N 55°17' E 014°48'0 0.0
2015-Mar-27 07:30N 55°17' E 014°48'0 0.0
2015-Mar-27 06:30N 55°17' E 014°48'0 0.0
2015-Mar-27 05:30N 55°17' E 014°48'0 0.0
2015-Mar-27 04:30N 55°17' E 014°48'0 0.0
2015-Mar-27 03:29N 55°17' E 014°48'0 0.0
2015-Mar-27 02:23N 55°17' E 014°48'0 0.0
2015-Mar-27 01:29N 55°17' E 014°48'0 0.0
2015-Mar-27 00:30N 55°17' E 014°48'0 0.0
2015-Mar-26 23:29N 55°17' E 014°48'0 0.0
2015-Mar-26 22:29N 55°17' E 014°48'0 0.0
2015-Mar-26 21:29N 55°17' E 014°48'0 0.0
2015-Mar-26 20:29N 55°17' E 014°48'0 0.0
2015-Mar-26 19:29N 55°17' E 014°48'0 0.0
2015-Mar-26 18:29N 55°17' E 014°48'0 0.0
2015-Mar-26 17:29N 55°17' E 014°48'0 0.0
2015-Mar-26 16:29N 55°17' E 014°48'2 1.6
2015-Mar-26 15:32N 55°17' E 014°45'0 0.0
2015-Mar-26 14:26N 55°17' E 014°45'0 0.0
2015-Mar-26 13:26N 55°17' E 014°45'0 0.0
2015-Mar-26 12:32N 55°17' E 014°45'3 3.1
2015-Mar-26 11:33N 55°17' E 014°40'3 2.6
2015-Mar-26 10:23N 55°17' E 014°45'0 0.0
2015-Mar-26 09:23N 55°17' E 014°45'0 0.0
2015-Mar-26 08:29N 55°17' E 014°45'0 0.0
2015-Mar-26 07:29N 55°17' E 014°45'0 0.0
2015-Mar-26 06:05N 55°17' E 014°45'0 0.0
2015-Mar-26 05:29N 55°17' E 014°45'0 0.0
2015-Mar-26 04:29N 55°17' E 014°45'0 0.0
2015-Mar-26 03:29N 55°17' E 014°45'0 0.0
2015-Mar-26 02:29N 55°17' E 014°45'0 0.0
2015-Mar-26 01:29N 55°17' E 014°45'0 0.0
2015-Mar-26 00:29N 55°17' E 014°45'0 0.0
2015-Mar-25 23:23N 55°17' E 014°45'0 0.0
2015-Mar-25 22:29N 55°17' E 014°45'0 0.0
2015-Mar-25 21:11N 55°17' E 014°45'0 0.0
2015-Mar-25 20:29N 55°17' E 014°45'0 0.0
2015-Mar-25 19:29N 55°17' E 014°45'0 0.0
2015-Mar-25 18:29N 55°17' E 014°45'0 0.0
2015-Mar-25 17:29N 55°17' E 014°45'0 0.0
2015-Mar-25 16:29N 55°17' E 014°45'0 0.0
2015-Mar-25 15:28N 55°17' E 014°45'0 0.0
2015-Mar-25 14:28N 55°17' E 014°45'0 0.0
2015-Mar-25 13:28N 55°17' E 014°45'0 0.0
2015-Mar-25 12:28N 55°17' E 014°45'0 0.0
2015-Mar-25 11:32N 55°17' E 014°45'1 0.9
2015-Mar-25 10:33N 55°17' E 014°45'2 1.6
2015-Mar-25 09:19N 55°17' E 014°48'0 0.0
2015-Mar-25 08:31N 55°17' E 014°48'0 0.0
2015-Mar-25 07:31N 55°17' E 014°48'0 0.0
2015-Mar-25 06:31N 55°17' E 014°48'0 0.0
2015-Mar-25 05:25N 55°17' E 014°48'0 0.0
2015-Mar-25 04:31N 55°17' E 014°48'0 0.0
2015-Mar-25 03:31N 55°17' E 014°48'3 2.7
2015-Mar-25 02:33N 55°18' E 014°52'3 2.4
2015-Mar-25 01:28N 55°17' E 014°48'0 0.0
2015-Mar-25 00:33N 55°17' E 014°48'0 0.0
2015-Mar-24 22:27N 55°17' E 014°48'0 0.0
2015-Mar-24 21:33N 55°17' E 014°48'0 0.0
2015-Mar-24 20:33N 55°17' E 014°48'0 0.0
2015-Mar-24 19:21N 55°17' E 014°48'0 0.0
2015-Mar-24 18:30N 55°17' E 014°48'0 0.0
2015-Mar-24 17:33N 55°17' E 014°48'0 0.0
2015-Mar-24 16:21N 55°17' E 014°48'0 0.0
2015-Mar-24 15:33N 55°17' E 014°48'0 0.0
2015-Mar-24 14:33N 55°17' E 014°48'0 0.0
2015-Mar-24 12:33N 55°17' E 014°48'0 0.0
2015-Mar-24 11:27N 55°17' E 014°48'0 0.0
2015-Mar-24 10:27N 55°17' E 014°48'0 0.0
2015-Mar-24 09:33N 55°17' E 014°48'0 0.0
2015-Mar-24 08:27N 55°17' E 014°48'0 0.0
2015-Mar-24 07:26N 55°17' E 014°48'0 0.0
2015-Mar-24 06:24N 55°17' E 014°48'0 0.0
2015-Mar-24 05:30N 55°17' E 014°48'0 0.0
2015-Mar-24 04:12N 55°17' E 014°48'0 0.0
2015-Mar-24 03:30N 55°17' E 014°48'0 0.0
2015-Mar-24 02:24N 55°17' E 014°48'0 0.0
2015-Mar-24 01:30N 55°17' E 014°48'0 0.0
2015-Mar-24 00:30N 55°17' E 014°48'0 0.0
2015-Mar-23 23:18N 55°17' E 014°48'0 0.0
2015-Mar-23 22:30N 55°17' E 014°48'0 0.0
2015-Mar-23 21:06N 55°17' E 014°48'0 0.0
2015-Mar-23 20:24N 55°17' E 014°48'0 0.0
2015-Mar-23 19:24N 55°17' E 014°48'2 2.9
2015-Mar-23 18:33N 55°18' E 014°51'2 2.2
2015-Mar-23 17:26N 55°17' E 014°48'0 0.0
2015-Mar-23 16:26N 55°17' E 014°48'0 0.0
2015-Mar-23 15:25N 55°17' E 014°48'0 0.0
2015-Mar-23 14:13N 55°17' E 014°48'0 0.0
2015-Mar-23 12:31N 55°17' E 014°48'0 0.0
2015-Mar-23 11:31N 55°17' E 014°48'0 0.0
2015-Mar-23 10:19N 55°17' E 014°48'0 0.0
2015-Mar-23 09:31N 55°17' E 014°48'0 0.0
2015-Mar-23 08:25N 55°17' E 014°48'0 0.0
2015-Mar-23 07:25N 55°17' E 014°48'0 0.0
2015-Mar-23 06:19N 55°17' E 014°48'0 0.0
2015-Mar-23 05:13N 55°17' E 014°48'0 0.0
2015-Mar-23 04:25N 55°17' E 014°48'0 0.0
2015-Mar-23 03:31N 55°17' E 014°48'0 0.0
2015-Mar-23 02:25N 55°17' E 014°48'0 0.0
2015-Mar-23 01:31N 55°17' E 014°48'0 0.0
2015-Mar-23 00:19N 55°17' E 014°48'0 0.0
2015-Mar-22 22:31N 55°17' E 014°48'0 0.0
2015-Mar-22 21:25N 55°17' E 014°48'0 0.0
2015-Mar-22 20:31N 55°17' E 014°48'0 0.0
2015-Mar-22 19:31N 55°17' E 014°48'0 0.0
2015-Mar-22 18:31N 55°17' E 014°48'0 0.0
2015-Mar-22 17:31N 55°17' E 014°48'0 0.0
2015-Mar-22 16:07N 55°17' E 014°48'0 0.0
2015-Mar-22 15:13N 55°17' E 014°48'0 0.0
2015-Mar-22 14:25N 55°17' E 014°48'0 0.0
2015-Mar-22 13:31N 55°17' E 014°48'0 0.0
2015-Mar-22 11:31N 55°17' E 014°48'0 0.0
2015-Mar-22 10:31N 55°17' E 014°48'1 0.6
2015-Mar-22 09:33N 55°17' E 014°48'1 1.5
2015-Mar-22 08:33N 55°17' E 014°45'0 0.0
2015-Mar-22 07:33N 55°17' E 014°45'0 0.0
2015-Mar-22 06:33N 55°17' E 014°45'0 0.0
2015-Mar-22 05:33N 55°17' E 014°45'0 0.0
2015-Mar-22 04:33N 55°17' E 014°45'0 0.0
2015-Mar-22 03:32N 55°17' E 014°45'0 0.0
2015-Mar-22 02:26N 55°17' E 014°45'1 0.1
2015-Mar-21 18:13N 55°16' E 014°44'1 0.3
2015-Mar-21 15:09N 55°16' E 014°43'2 0.9
2015-Mar-21 13:31N 55°16' E 014°41'1 0.3
2015-Mar-21 09:30N 55°17' E 014°43'1 0.2
2015-Mar-21 02:23N 55°17' E 014°45'2 0.1
2015-Mar-20 13:25N 55°17' E 014°48'0 0.0
2015-Mar-20 12:19N 55°17' E 014°48'0 0.0
2015-Mar-20 11:31N 55°17' E 014°48'0 0.0
2015-Mar-20 10:13N 55°17' E 014°48'0 0.0
2015-Mar-20 09:31N 55°17' E 014°48'0 0.0
2015-Mar-20 08:27N 55°17' E 014°48'0 0.0
2015-Mar-20 07:33N 55°17' E 014°48'0 0.0
2015-Mar-20 06:33N 55°17' E 014°48'3 3.4
2015-Mar-20 05:33N 55°20' E 014°48'3 3.1
2015-Mar-20 04:26N 55°17' E 014°48'0 0.0
2015-Mar-20 03:32N 55°17' E 014°48'0 0.0
2015-Mar-20 02:26N 55°17' E 014°48'0 0.0
2015-Mar-20 01:26N 55°17' E 014°48'0 0.0
2015-Mar-20 00:20N 55°17' E 014°48'0 0.1
2015-Mar-19 23:34N 55°17' E 014°48'0 0.1
2015-Mar-19 22:33N 55°17' E 014°48'1 0.5
2015-Mar-19 20:33N 55°18' E 014°48'1 1.0
2015-Mar-19 19:31N 55°17' E 014°48'0 0.0
2015-Mar-19 18:25N 55°17' E 014°48'0 0.0
2015-Mar-19 17:31N 55°17' E 014°48'0 0.0
2015-Mar-19 16:19N 55°17' E 014°48'0 0.0
2015-Mar-19 15:31N 55°17' E 014°48'0 0.0
2015-Mar-19 14:31N 55°17' E 014°48'0 0.0
2015-Mar-19 13:30N 55°17' E 014°48'0 0.0
2015-Mar-19 12:24N 55°17' E 014°48'0 0.0
2015-Mar-19 11:30N 55°17' E 014°48'0 0.0
2015-Mar-19 10:30N 55°17' E 014°48'0 0.0
2015-Mar-19 09:30N 55°17' E 014°48'0 0.0
2015-Mar-19 08:18N 55°17' E 014°48'0 0.0
2015-Mar-19 07:24N 55°17' E 014°48'0 0.0
2015-Mar-19 06:30N 55°17' E 014°48'0 0.0
2015-Mar-19 05:30N 55°17' E 014°48'0 0.0
2015-Mar-19 04:30N 55°17' E 014°48'0 0.0
2015-Mar-19 03:30N 55°17' E 014°48'0 0.0
2015-Mar-19 02:18N 55°17' E 014°48'0 0.0
2015-Mar-19 01:24N 55°17' E 014°48'0 0.0
2015-Mar-19 00:30N 55°17' E 014°48'0 0.0
2015-Mar-18 23:18N 55°17' E 014°48'0 0.0
2015-Mar-18 22:24N 55°17' E 014°48'0 0.0
2015-Mar-18 21:30N 55°17' E 014°48'0 0.0
2015-Mar-18 20:30N 55°17' E 014°48'0 0.0
2015-Mar-18 19:30N 55°17' E 014°48'0 0.0
2015-Mar-18 18:18N 55°17' E 014°48'0 0.0
2015-Mar-18 17:30N 55°17' E 014°48'0 0.0
2015-Mar-18 16:30N 55°17' E 014°48'0 0.0
2015-Mar-18 15:30N 55°17' E 014°48'0 0.0
2015-Mar-18 14:30N 55°17' E 014°48'0 0.0
2015-Mar-18 13:30N 55°17' E 014°48'0 0.0
2015-Mar-18 12:24N 55°17' E 014°48'0 0.0
2015-Mar-18 11:22N 55°17' E 014°48'0 0.0
2015-Mar-18 10:23N 55°17' E 014°48'0 0.0
2015-Mar-18 09:29N 55°17' E 014°48'0 0.0
2015-Mar-18 08:29N 55°17' E 014°48'0 0.0
2015-Mar-18 07:17N 55°17' E 014°48'0 0.0
2015-Mar-18 06:29N 55°17' E 014°48'0 0.0
2015-Mar-18 05:29N 55°17' E 014°48'0 0.0
2015-Mar-18 04:23N 55°17' E 014°48'0 0.0
2015-Mar-18 03:17N 55°17' E 014°48'0 0.0
2015-Mar-18 02:33N 55°17' E 014°48'0 0.0
2015-Mar-18 01:22N 55°17' E 014°48'0 0.0
2015-Mar-18 00:28N 55°17' E 014°48'  

Dump ship's entire track history